createdAt,value
2019-03-31T00:01:14.568Z,97825.04
2019-03-31T00:03:43.073Z,97818.30
2019-03-31T00:06:11.547Z,97817.23
2019-03-31T00:08:40.135Z,97822.59
2019-03-31T00:11:08.557Z,97823.44
2019-03-31T00:13:36.980Z,97822.63
2019-03-31T00:16:05.444Z,97818.58
2019-03-31T00:18:33.901Z,97819.70
2019-03-31T00:21:02.377Z,97820.91
2019-03-31T00:23:30.816Z,97816.86
2019-03-31T00:25:59.242Z,97815.66
2019-03-31T00:28:27.708Z,97818.91
2019-03-31T00:30:56.620Z,97819.16
2019-03-31T00:33:25.142Z,97814.64
2019-03-31T00:35:53.612Z,97815.50
2019-03-31T00:38:22.049Z,97814.16
2019-03-31T00:40:50.467Z,97822.58
2019-03-31T00:43:18.891Z,97824.17
2019-03-31T00:45:47.388Z,97817.50
2019-03-31T00:48:15.836Z,97817.59
2019-03-31T00:50:44.265Z,97819.42
2019-03-31T00:53:12.748Z,97816.15
2019-03-31T00:55:41.223Z,97819.20
2019-03-31T00:58:09.645Z,97813.10
2019-03-31T01:00:56.182Z,97814.19
2019-03-31T01:03:25.109Z,97819.14
2019-03-31T01:05:53.550Z,97813.97
2019-03-31T01:08:21.993Z,97813.49
2019-03-31T01:10:50.508Z,97812.47
2019-03-31T01:13:18.990Z,97810.25
2019-03-31T01:15:47.399Z,97808.19
2019-03-31T01:18:16.101Z,97809.54
2019-03-31T01:20:45.028Z,97809.77
2019-03-31T01:23:13.503Z,97805.17
2019-03-31T01:25:41.957Z,97807.88
2019-03-31T01:28:10.501Z,97810.57
2019-03-31T01:30:38.947Z,97808.41
2019-03-31T01:33:07.398Z,97808.99
2019-03-31T01:35:35.856Z,97806.62
2019-03-31T01:38:04.282Z,97809.06
2019-03-31T01:40:32.739Z,97806.36
2019-03-31T01:43:01.139Z,97805.02
2019-03-31T01:45:29.556Z,97815.36
2019-03-31T01:47:58.009Z,97808.52
2019-03-31T01:50:27.203Z,97804.24
2019-03-31T01:52:55.669Z,97811.76
2019-03-31T01:55:24.085Z,97812.66
2019-03-31T01:57:52.509Z,97805.59
2019-03-31T02:00:46.028Z,97807.27
2019-03-31T02:03:14.443Z,97810.41
2019-03-31T02:05:42.908Z,97810.73
2019-03-31T02:08:11.386Z,97811.63
2019-03-31T02:10:39.804Z,97803.86
2019-03-31T02:13:08.293Z,97805.66
2019-03-31T02:15:36.727Z,97805.44
2019-03-31T02:18:05.330Z,97803.06
2019-03-31T02:20:33.760Z,97805.98
2019-03-31T02:23:02.201Z,97803.22
2019-03-31T02:25:30.670Z,97799.81
2019-03-31T02:27:59.093Z,97806.87
2019-03-31T02:30:27.545Z,97805.20
2019-03-31T02:32:56.000Z,97802.83
2019-03-31T02:35:24.410Z,97800.20
2019-03-31T02:37:52.833Z,97797.38
2019-03-31T02:40:21.307Z,97791.18
2019-03-31T02:42:49.765Z,97798.15
2019-03-31T02:45:18.210Z,97798.63
2019-03-31T02:47:46.645Z,97792.53
2019-03-31T02:50:17.247Z,97797.44
2019-03-31T02:52:45.711Z,97795.32
2019-03-31T02:55:14.123Z,97794.52
2019-03-31T02:57:42.550Z,97788.58
2019-03-31T03:00:10.999Z,97788.26
2019-03-31T03:02:42.250Z,97793.39
2019-03-31T03:05:19.612Z,97793.17
2019-03-31T03:07:39.678Z,97796.67
2019-03-31T03:10:08.083Z,97795.87
2019-03-31T03:12:36.536Z,97795.64
2019-03-31T03:15:04.984Z,97798.34
2019-03-31T03:17:33.384Z,97792.23
2019-03-31T03:20:01.827Z,97795.73
2019-03-31T03:22:30.234Z,97791.69
2019-03-31T03:24:58.743Z,97797.63
2019-03-31T03:27:27.205Z,97794.70
2019-03-31T03:29:55.654Z,97790.89
2019-03-31T03:32:24.121Z,97786.05
2019-03-31T03:34:52.532Z,97786.14
2019-03-31T03:37:21.019Z,97789.86
2019-03-31T03:39:49.594Z,97787.27
2019-03-31T03:42:18.072Z,97791.85
2019-03-31T03:44:46.519Z,97795.09
2019-03-31T03:47:15.033Z,97787.33
2019-03-31T03:49:43.461Z,97788.36
2019-03-31T03:52:11.994Z,97791.37
2019-03-31T03:54:40.487Z,97793.52
2019-03-31T03:57:09.001Z,97795.99
2019-03-31T03:59:37.428Z,97792.02
2019-03-31T04:02:05.843Z,97792.02
2019-03-31T04:04:34.275Z,97789.41
2019-03-31T04:07:02.949Z,97797.27
2019-03-31T04:09:31.425Z,97796.15
2019-03-31T04:11:59.861Z,97792.11
2019-03-31T04:14:28.307Z,97792.42
2019-03-31T04:16:56.739Z,97796.25
2019-03-31T04:19:25.184Z,97797.59
2019-03-31T04:21:53.612Z,97794.58
2019-03-31T04:24:22.061Z,97794.89
2019-03-31T04:26:50.495Z,97789.83
2019-03-31T04:29:18.919Z,97734.22
2019-03-31T04:31:47.368Z,97788.22
2019-03-31T04:34:15.822Z,97789.56
2019-03-31T04:36:44.262Z,97784.17
2019-03-31T04:39:12.668Z,97783.72
2019-03-31T04:41:41.100Z,97792.58
2019-03-31T04:44:09.625Z,97787.83
2019-03-31T04:46:38.108Z,97796.17
2019-03-31T04:49:06.620Z,97796.50
2019-03-31T04:51:35.128Z,97793.31
2019-03-31T04:54:03.578Z,97797.36
2019-03-31T04:56:32.016Z,97800.28
2019-03-31T04:59:00.454Z,97800.59
2019-03-31T05:01:28.844Z,97806.56
2019-03-31T05:04:04.722Z,97803.30
2019-03-31T05:06:27.484Z,97807.91
2019-03-31T05:08:55.949Z,97800.38
2019-03-31T05:11:24.376Z,97801.23
2019-03-31T05:13:52.855Z,97798.80
2019-03-31T05:16:21.391Z,97801.01
2019-03-31T05:18:49.840Z,97801.59
2019-03-31T05:21:18.252Z,97802.19
2019-03-31T05:23:46.659Z,97801.39
2019-03-31T05:26:15.066Z,97804.09
2019-03-31T05:28:44.253Z,97808.94
2019-03-31T05:31:12.845Z,97807.33
2019-03-31T05:33:41.279Z,97811.63
2019-03-31T05:36:09.696Z,97812.97
2019-03-31T05:38:38.137Z,97810.50
2019-03-31T05:41:06.567Z,97814.55
2019-03-31T05:43:35.061Z,97813.75
2019-03-31T05:46:03.523Z,97814.87
2019-03-31T05:48:31.932Z,97811.37
2019-03-31T05:51:00.421Z,97818.11
2019-03-31T05:53:28.833Z,97822.15
2019-03-31T05:55:57.296Z,97826.19
2019-03-31T05:58:25.749Z,97815.41
2019-03-31T06:00:54.298Z,97822.47
2019-03-31T06:03:23.150Z,97823.75
2019-03-31T06:05:51.664Z,97828.03
2019-03-31T06:08:20.109Z,97823.44
2019-03-31T06:10:48.664Z,97824.53
2019-03-31T06:13:17.257Z,97827.73
2019-03-31T06:15:45.684Z,97829.37
2019-03-31T06:18:14.107Z,97830.95
2019-03-31T06:20:42.804Z,97839.32
2019-03-31T06:23:11.336Z,97837.63
2019-03-31T06:25:39.797Z,97831.05
2019-03-31T06:28:08.287Z,97829.70
2019-03-31T06:30:36.714Z,97834.30
2019-03-31T06:33:05.166Z,97829.16
2019-03-31T06:35:33.645Z,97828.58
2019-03-31T06:38:02.096Z,97835.00
2019-03-31T06:40:30.654Z,97837.38
2019-03-31T06:43:00.015Z,97833.66
2019-03-31T06:45:28.571Z,97837.72
2019-03-31T06:47:57.112Z,97835.78
2019-03-31T06:50:25.762Z,97836.82
2019-03-31T06:52:54.224Z,97838.55
2019-03-31T06:55:22.749Z,97838.26
2019-03-31T06:57:51.345Z,97847.54
2019-03-31T07:00:19.839Z,97842.05
2019-03-31T07:02:48.353Z,97839.59
2019-03-31T07:05:16.827Z,97840.61
2019-03-31T07:07:45.304Z,97842.54
2019-03-31T07:10:13.814Z,97845.63
2019-03-31T07:12:42.311Z,97847.20
2019-03-31T07:15:10.840Z,97844.41
2019-03-31T07:17:39.273Z,97847.11
2019-03-31T07:20:08.349Z,97849.80
2019-03-31T07:22:36.812Z,97852.34
2019-03-31T07:25:06.989Z,97851.77
2019-03-31T07:27:35.584Z,97855.04
2019-03-31T07:30:07.104Z,97851.29
2019-03-31T07:32:34.372Z,97853.76
2019-03-31T07:35:03.043Z,97847.88
2019-03-31T07:37:31.441Z,97862.88
2019-03-31T07:40:00.194Z,97856.91
2019-03-31T07:42:29.203Z,97855.95
2019-03-31T07:44:57.751Z,97861.27
2019-03-31T07:47:27.156Z,97856.59
2019-03-31T07:49:55.773Z,97862.91
2019-03-31T07:52:24.446Z,97860.77
2019-03-31T07:54:54.377Z,97854.76
2019-03-31T07:57:22.974Z,97855.47
2019-03-31T07:59:51.462Z,97847.27
2019-03-31T08:02:19.871Z,97854.50
2019-03-31T08:04:48.284Z,97851.22
2019-03-31T08:07:16.741Z,97849.71
2019-03-31T08:09:45.292Z,97853.76
2019-03-31T08:12:13.770Z,97849.94
2019-03-31T08:14:42.205Z,97850.42
2019-03-31T08:17:10.690Z,97846.78
2019-03-31T08:19:39.144Z,97844.05
2019-03-31T08:22:07.596Z,97841.88
2019-03-31T08:24:54.134Z,97839.08
2019-03-31T08:27:22.667Z,97839.13
2019-03-31T08:30:00.102Z,97838.00
2019-03-31T08:32:21.305Z,97839.50
2019-03-31T08:34:49.720Z,97845.77
2019-03-31T08:37:18.119Z,97835.87
2019-03-31T08:39:46.522Z,97837.08
2019-03-31T08:42:14.923Z,97836.76
2019-03-31T08:44:45.056Z,97838.59
2019-03-31T08:47:13.519Z,97842.05
2019-03-31T08:49:41.944Z,97841.67
2019-03-31T08:52:10.372Z,97841.03
2019-03-31T08:54:38.772Z,97843.23
2019-03-31T08:57:07.163Z,97838.53
2019-03-31T08:59:35.568Z,97835.61
2019-03-31T09:02:21.825Z,97836.36
2019-03-31T09:04:50.252Z,97833.51
2019-03-31T09:07:18.713Z,97843.23
2019-03-31T09:09:47.216Z,97835.88
2019-03-31T09:12:15.628Z,97847.28
2019-03-31T09:14:44.019Z,97841.88
2019-03-31T09:17:12.469Z,97842.58
2019-03-31T09:19:40.878Z,97837.22
2019-03-31T09:22:09.305Z,97839.33
2019-03-31T09:24:37.715Z,97833.27
2019-03-31T09:27:06.169Z,97835.28
2019-03-31T09:29:34.661Z,97828.20
2019-03-31T09:32:03.129Z,97826.42
2019-03-31T09:34:31.544Z,97825.22
2019-03-31T09:37:00.045Z,97827.81
2019-03-31T09:39:28.449Z,97821.69
2019-03-31T09:41:56.956Z,97826.53
2019-03-31T09:44:25.364Z,97820.70
2019-03-31T09:46:53.857Z,97825.00
2019-03-31T09:49:22.355Z,97817.78
2019-03-31T09:51:50.740Z,97812.96
2019-03-31T09:54:19.188Z,97815.34
2019-03-31T09:56:47.599Z,97810.03
2019-03-31T09:59:16.036Z,97814.20
2019-03-31T10:01:44.422Z,97808.80
2019-03-31T10:04:12.823Z,97809.27
2019-03-31T10:06:41.267Z,97801.42
2019-03-31T10:09:09.667Z,97797.84
2019-03-31T10:11:38.092Z,97794.45
2019-03-31T10:14:06.553Z,97791.52
2019-03-31T10:16:35.000Z,97789.41
2019-03-31T10:19:03.383Z,97790.06
2019-03-31T10:21:31.905Z,97789.41
2019-03-31T10:24:00.282Z,97783.89
2019-03-31T10:26:32.183Z,97782.65
2019-03-31T10:28:58.755Z,97783.34
2019-03-31T10:31:27.164Z,97774.43
2019-03-31T10:33:55.567Z,97772.86
2019-03-31T10:36:23.972Z,97770.27
2019-03-31T10:38:52.446Z,97767.56
2019-03-31T10:41:20.844Z,97766.11
2019-03-31T10:43:49.239Z,97764.86
2019-03-31T10:46:17.728Z,97762.05
2019-03-31T10:48:46.226Z,97761.94
2019-03-31T10:51:14.653Z,97758.55
2019-03-31T10:53:43.044Z,97753.94
2019-03-31T10:56:11.464Z,97753.14
2019-03-31T10:58:39.868Z,97750.36
2019-03-31T11:01:08.293Z,97754.85
2019-03-31T11:03:36.873Z,97749.36
2019-03-31T11:06:05.304Z,97752.84
2019-03-31T11:08:33.735Z,97745.20
2019-03-31T11:11:02.152Z,97746.55
2019-03-31T11:13:30.585Z,97748.34
2019-03-31T11:15:58.986Z,97741.69
2019-03-31T11:18:27.431Z,97737.30
2019-03-31T11:20:57.132Z,97730.11
2019-03-31T11:23:27.501Z,97734.94
2019-03-31T11:25:55.892Z,97733.03
2019-03-31T11:28:24.282Z,97730.20
2019-03-31T11:30:52.691Z,97729.86
2019-03-31T11:33:21.192Z,97728.41
2019-03-31T11:35:49.599Z,97721.73
2019-03-31T11:38:18.000Z,97722.39
2019-03-31T11:40:46.411Z,97715.86
2019-03-31T11:43:14.812Z,97717.77
2019-03-31T11:45:43.226Z,97712.58
2019-03-31T11:48:11.626Z,97715.73
2019-03-31T11:50:40.133Z,97714.59
2019-03-31T11:53:08.570Z,97719.38
2019-03-31T11:55:36.972Z,97709.51
2019-03-31T11:58:05.382Z,97710.28
2019-03-31T12:00:36.112Z,97710.08
2019-03-31T12:03:04.512Z,97697.47
2019-03-31T12:05:32.943Z,97712.80
2019-03-31T12:08:01.348Z,97699.97
2019-03-31T12:10:29.748Z,97698.95
2019-03-31T12:12:58.147Z,97699.17
2019-03-31T12:15:26.548Z,97693.23
2019-03-31T12:17:54.985Z,97692.22
2019-03-31T12:20:23.482Z,97686.13
2019-03-31T12:22:51.889Z,97686.13
2019-03-31T12:25:20.303Z,97679.71
2019-03-31T12:27:48.706Z,97684.65
2019-03-31T12:30:18.683Z,97680.49
2019-03-31T12:32:47.093Z,97680.27
2019-03-31T12:35:15.548Z,97678.79
2019-03-31T12:37:43.984Z,97676.55
2019-03-31T12:40:15.872Z,97676.87
2019-03-31T12:42:44.285Z,97679.02
2019-03-31T12:45:12.685Z,97676.08
2019-03-31T12:47:41.075Z,97672.02
2019-03-31T12:50:09.484Z,97660.45
2019-03-31T12:52:46.466Z,97667.63
2019-03-31T12:55:07.956Z,97663.37
2019-03-31T12:57:36.391Z,97658.41
2019-03-31T13:00:04.917Z,97661.67
2019-03-31T13:02:33.320Z,97653.00
2019-03-31T13:05:01.753Z,97652.67
2019-03-31T13:07:30.139Z,97650.98
2019-03-31T13:09:58.565Z,97648.16
2019-03-31T13:12:27.047Z,97653.57
2019-03-31T13:14:55.442Z,97643.77
2019-03-31T13:17:23.851Z,97635.19
2019-03-31T13:20:11.225Z,97629.02
2019-03-31T13:22:39.635Z,97627.42
2019-03-31T13:25:08.048Z,97623.95
2019-03-31T13:27:36.482Z,97631.86
2019-03-31T13:30:05.100Z,97624.30
2019-03-31T13:35:20.929Z,97620.92
2019-03-31T13:37:49.383Z,97619.69
2019-03-31T13:42:51.528Z,97617.20
2019-03-31T13:45:19.952Z,97608.53
2019-03-31T13:50:35.780Z,97603.34
2019-03-31T13:53:04.213Z,97608.53
2019-03-31T13:55:32.649Z,97597.03
2019-03-31T13:58:02.906Z,97601.98
2019-03-31T14:00:33.976Z,97601.89
2019-03-31T14:03:02.393Z,97597.37
2019-03-31T14:05:30.842Z,97599.61
2019-03-31T14:07:59.311Z,97593.40
2019-03-31T14:10:27.756Z,97587.56
2019-03-31T14:15:31.553Z,97584.52
2019-03-31T14:18:00.054Z,97583.05
2019-03-31T14:20:28.595Z,97580.13
2019-03-31T14:22:57.040Z,97575.17
2019-03-31T14:25:25.574Z,97569.86
2019-03-31T14:27:54.005Z,97571.12
2019-03-31T14:30:22.491Z,97575.39
2019-03-31T14:32:50.968Z,97572.69
2019-03-31T14:35:19.434Z,97566.05
2019-03-31T14:37:47.958Z,97564.35
2019-03-31T14:40:35.355Z,97562.67
2019-03-31T14:43:03.796Z,97565.23
2019-03-31T14:45:32.940Z,97552.95
2019-03-31T14:48:01.698Z,97555.43
2019-03-31T14:50:48.992Z,97553.75
2019-03-31T14:53:17.495Z,97546.39
2019-03-31T14:55:45.990Z,97552.05
2019-03-31T14:58:14.507Z,97548.33
2019-03-31T15:01:01.810Z,97547.44
2019-03-31T15:03:30.224Z,97544.06
2019-03-31T15:05:58.728Z,97536.05
2019-03-31T15:08:27.225Z,97533.02
2019-03-31T15:10:55.706Z,97534.37
2019-03-31T15:13:42.915Z,97534.83
2019-03-31T15:16:30.238Z,97530.97
2019-03-31T15:21:46.144Z,97540.88
2019-03-31T15:24:14.560Z,97535.69
2019-03-31T15:26:43.036Z,97539.95
2019-03-31T15:31:45.472Z,97541.30
2019-03-31T15:34:13.914Z,97540.63
2019-03-31T15:36:42.328Z,97540.06
2019-03-31T15:39:10.752Z,97547.39
2019-03-31T15:41:57.969Z,97544.02
2019-03-31T15:44:26.403Z,97538.17
2019-03-31T15:47:13.613Z,97532.98
2019-03-31T15:49:42.134Z,97534.67
2019-03-31T15:52:10.573Z,97537.38
2019-03-31T15:54:39.073Z,97536.70
2019-03-31T15:57:07.465Z,97537.16
2019-03-31T15:59:35.886Z,97535.02
2019-03-31T16:02:04.301Z,97533.78
2019-03-31T16:04:32.749Z,97528.80
2019-03-31T16:07:01.152Z,97527.02
2019-03-31T16:09:29.527Z,97527.02
2019-03-31T16:11:57.628Z,97529.40
2019-03-31T16:14:25.761Z,97529.19
2019-03-31T16:16:53.979Z,97529.05
2019-03-31T16:19:41.225Z,97527.83
2019-03-31T16:22:09.401Z,97524.54
2019-03-31T16:24:40.275Z,97524.33
2019-03-31T16:27:08.408Z,97525.22
2019-03-31T16:29:36.590Z,97526.15
2019-03-31T16:32:04.748Z,97520.16
2019-03-31T16:34:32.876Z,97528.95
2019-03-31T16:37:01.032Z,97528.86
2019-03-31T16:39:37.520Z,97525.03
2019-03-31T16:41:59.000Z,97526.72
2019-03-31T16:44:27.119Z,97522.20
2019-03-31T16:46:55.388Z,97530.09
2019-03-31T16:49:23.531Z,97527.61
2019-03-31T16:52:10.748Z,97527.95
2019-03-31T16:54:38.889Z,97527.05
2019-03-31T16:57:07.033Z,97531.45
2019-03-31T16:59:54.073Z,97519.62
2019-03-31T17:02:22.309Z,97530.44
2019-03-31T17:04:50.455Z,97527.40
2019-03-31T17:07:18.611Z,97530.66
2019-03-31T17:09:51.647Z,97538.00
2019-03-31T17:12:16.649Z,97537.33
2019-03-31T17:14:44.769Z,97533.36
2019-03-31T17:17:12.903Z,97542.40
2019-03-31T17:19:41.104Z,97541.94
2019-03-31T17:22:09.259Z,97544.77
2019-03-31T17:24:37.479Z,97538.34
2019-03-31T17:27:05.599Z,97542.70
2019-03-31T17:29:33.742Z,97539.20
2019-03-31T17:32:01.898Z,97542.25
2019-03-31T17:34:30.029Z,97542.38
2019-03-31T17:37:17.232Z,97541.82
2019-03-31T17:39:45.384Z,97546.64
2019-03-31T17:42:13.535Z,97548.92
2019-03-31T17:44:41.665Z,97542.16
2019-03-31T17:47:28.726Z,97545.88
2019-03-31T17:49:56.871Z,97543.17
2019-03-31T17:52:25.048Z,97548.23
2019-03-31T17:54:53.173Z,97544.52
2019-03-31T17:57:21.408Z,97547.56
2019-03-31T17:59:49.562Z,97551.84
2019-03-31T18:02:36.793Z,97554.54
2019-03-31T18:05:05.729Z,97551.16
2019-03-31T18:07:33.873Z,97553.19
2019-03-31T18:10:02.009Z,97558.38
2019-03-31T18:12:30.209Z,97557.12
2019-03-31T18:14:58.359Z,97564.13
2019-03-31T18:17:26.566Z,97566.15
2019-03-31T18:19:54.743Z,97567.59
2019-03-31T18:22:22.902Z,97571.09
2019-03-31T18:25:10.398Z,97568.39
2019-03-31T18:27:57.468Z,97570.88
2019-03-31T18:30:25.592Z,97582.58
2019-03-31T18:32:53.777Z,97581.56
2019-03-31T18:35:21.934Z,97589.89
2019-03-31T18:37:50.047Z,97590.81
2019-03-31T18:40:37.288Z,97597.44
2019-03-31T18:45:52.672Z,97598.09
2019-03-31T18:48:20.795Z,97604.86
2019-03-31T18:50:49.036Z,97607.67
2019-03-31T18:53:29.901Z,97616.13
2019-03-31T18:56:17.017Z,97609.02
2019-03-31T18:59:04.029Z,97614.55
2019-03-31T19:01:51.109Z,97612.39
2019-03-31T19:04:38.201Z,97617.47
2019-03-31T19:07:25.229Z,97613.63
2019-03-31T19:10:24.038Z,97615.91
2019-03-31T19:13:07.747Z,97620.86
2019-03-31T19:15:53.531Z,97620.06
2019-03-31T19:18:43.826Z,97626.94
2019-03-31T19:21:35.241Z,97629.19
2019-03-31T19:24:11.339Z,97633.83
2019-03-31T19:26:57.073Z,97566.34
2019-03-31T19:29:44.123Z,97640.23
2019-03-31T19:32:46.385Z,97644.97
2019-03-31T19:35:28.470Z,97641.67
2019-03-31T19:38:18.379Z,97653.06
2019-03-31T19:41:13.121Z,97648.56
2019-03-31T19:44:03.332Z,97653.50
2019-03-31T19:46:42.026Z,97660.04
2019-03-31T19:49:47.575Z,97657.14
2019-03-31T19:52:34.688Z,97663.98
2019-03-31T19:55:16.835Z,97658.91
2019-03-31T19:58:09.758Z,97662.52
2019-03-31T20:01:15.004Z,97655.08
2019-03-31T20:03:59.402Z,97665.23
2019-03-31T20:06:44.516Z,97665.23
2019-03-31T20:09:31.688Z,97670.63
2019-03-31T20:12:15.942Z,97671.73
2019-03-31T20:15:01.668Z,97677.80
2019-03-31T20:18:00.990Z,97676.23
2019-03-31T20:20:48.094Z,97675.77
2019-03-31T20:23:26.214Z,97682.77
2019-03-31T20:26:16.134Z,97684.13
2019-03-31T20:29:01.855Z,97691.55
2019-03-31T20:31:47.756Z,97686.36
2019-03-31T20:34:26.891Z,97687.82
2019-03-31T20:37:14.180Z,97690.19
2019-03-31T20:40:00.406Z,97686.00
2019-03-31T20:42:55.660Z,97656.42
2019-03-31T20:45:23.810Z,97682.41
2019-03-31T20:47:51.942Z,97685.31
2019-03-31T20:50:20.224Z,97684.98
2019-03-31T20:52:48.389Z,97696.12
2019-03-31T20:55:17.069Z,97693.64
2019-03-31T20:57:45.206Z,97700.06
2019-03-31T21:00:13.385Z,97701.09
2019-03-31T21:02:41.625Z,97704.67
2019-03-31T21:05:09.786Z,97705.47
2019-03-31T21:07:37.944Z,97696.76
2019-03-31T21:10:06.418Z,97712.30
2019-03-31T21:12:34.667Z,97719.97
2019-03-31T21:15:02.877Z,97716.00
2019-03-31T21:17:31.043Z,97718.62
2019-03-31T21:19:59.270Z,97720.19
2019-03-31T21:22:27.564Z,97719.64
2019-03-31T21:24:55.846Z,97721.87
2019-03-31T21:27:24.044Z,97720.52
2019-03-31T21:29:52.169Z,97725.23
2019-03-31T21:32:20.467Z,97723.33
2019-03-31T21:34:48.584Z,97718.30
2019-03-31T21:37:16.781Z,97726.08
2019-03-31T21:39:44.907Z,97726.99
2019-03-31T21:42:13.165Z,97727.65
2019-03-31T21:44:41.334Z,97722.58
2019-03-31T21:47:09.485Z,97728.20
2019-03-31T21:49:37.651Z,97720.20
2019-03-31T21:52:05.795Z,97724.25
2019-03-31T21:54:33.955Z,97725.36
2019-03-31T21:57:02.440Z,97724.25
2019-03-31T21:59:33.386Z,97728.17
2019-03-31T22:02:00.389Z,97725.47
2019-03-31T22:04:28.571Z,97727.36
2019-03-31T22:06:56.773Z,97729.52
2019-03-31T22:09:24.957Z,97738.50
2019-03-31T22:11:53.159Z,97734.55
2019-03-31T22:14:21.290Z,97730.61
2019-03-31T22:16:49.465Z,97734.52
2019-03-31T22:19:17.584Z,97736.19
2019-03-31T22:21:45.772Z,97729.77
2019-03-31T22:24:13.890Z,97734.15
2019-03-31T22:26:42.051Z,97736.77
2019-03-31T22:29:10.232Z,97735.42
2019-03-31T22:31:38.398Z,97737.43
2019-03-31T22:34:06.533Z,97730.90
2019-03-31T22:36:34.725Z,97734.36
2019-03-31T22:39:04.093Z,97738.86
2019-03-31T22:41:32.267Z,97738.96
2019-03-31T22:44:00.416Z,97733.78
2019-03-31T22:46:28.579Z,97736.04
2019-03-31T22:48:56.732Z,97736.91
2019-03-31T22:51:24.890Z,97737.14
2019-03-31T22:53:53.060Z,97733.74
2019-03-31T22:56:21.182Z,97738.70
2019-03-31T22:58:49.369Z,97732.64
2019-03-31T23:01:17.512Z,97735.89
2019-03-31T23:03:45.664Z,97730.27
2019-03-31T23:06:13.802Z,97731.30
2019-03-31T23:08:41.956Z,97737.89
2019-03-31T23:11:10.197Z,97737.34
2019-03-31T23:13:38.332Z,97735.42
2019-03-31T23:16:06.490Z,97729.80
2019-03-31T23:18:34.647Z,97733.84
2019-03-31T23:21:02.784Z,97731.58
2019-03-31T23:23:30.915Z,97734.72
2019-03-31T23:25:59.118Z,97733.25
2019-03-31T23:28:27.259Z,97731.25
2019-03-31T23:30:55.452Z,97734.61
2019-03-31T23:33:23.587Z,97731.76
2019-03-31T23:35:51.844Z,97741.36
2019-03-31T23:38:19.985Z,97732.13
2019-03-31T23:40:48.130Z,97734.23
2019-03-31T23:43:16.268Z,97729.65
2019-03-31T23:45:44.409Z,97735.48
2019-03-31T23:48:12.556Z,97735.48
2019-03-31T23:50:40.737Z,97731.44
2019-03-31T23:53:08.896Z,97731.53
2019-03-31T23:55:37.042Z,97729.16
2019-03-31T23:58:05.195Z,97732.41
